Terminal Aerodrome Forecast
Issued by NWS

Home | Current Version | Previous Version | Text Only | Print | Product List | Glossary On
Versions: 1 2 3 4 5 6 7 8 9 10 11 12 13 14 15 16 17 18 19 20 21 22 23 24 25 26
174
FTUS41 KBUF 201501 AAA
TAFIAG
TAF AMD
KIAG 201501Z 2015/2112 06005KT 5SM BR BKN004
     FM201600 08005KT P6SM SCT015 BKN120
      TEMPO 2016/2018 BKN005
     FM202000 11005KT 4SM -RA OVC040
     FM202200 13005KT 6SM -SHRA OVC015
     FM210100 19008KT 2SM -DZ BR OVC007
     FM210600 22009KT 1/2SM -DZ FG OVC003=

USA.gov is the U.S. government's official web portal to all federal, state and local government web resources and services.